Berlin, NH

7:16 PM EST on December 03, 2016 (GMT -0500)
Norwegian village | | Change Station

Elev 1099 ft 44.48 °N, 71.17 °W | Updated 1 second ago

Light Snow
Light Snow
30.2 °F
Feels Like 30 °F
N
0.7
Wind Variable Wind from SW
Gusts 2.2 mph

Today
High -- | Low -- °F
--% Chance of Precip.
Yesterday
High -- | Low -- °F
Precip. -- in
Pressure 29.96 in
Visibility 7.0 miles
Clouds Mostly Cloudy 3000 ft
Overcast 3500 ft
Windchill 30 °F
Dew Point 23 °F
Humidity 75%
Rainfall 0.07 in
Snow Depth Not available.
7:03 AM 4:05 PM
Waxing Crescent, 18% visible
SPECI KBML 040003Z AUTO 33009KT 7SM -SN BKN030 OVC035 M01/M06 A2996 RMK AO2 P0000 T10061056
Pressure 29.96 in
Visibility 7.0 miles
Clouds Mostly Cloudy 3000 ft
Overcast 3500 ft
Windchill 30 °F
Dew Point 23 °F
Humidity 75%
Rainfall 0.07 in
Snow Depth Not available.
7:03 AM 4:05 PM
Waxing Crescent, 18% visible
SPECI KBML 040003Z AUTO 33009KT 7SM -SN BKN030 OVC035 M01/M06 A2996 RMK AO2 P0000 T10061056

10-Day Weather Forecast

Almanac

Astronomy

Dec. 03, 2016 Rise Set
Actual Time
Civil Twilight
Nautical Twilight
Astronomical Twilight
Moon
Length of Visible Light
Length of Day
Tomorrow will be .
, % of the Moon is Illuminated

Today's Extremes

State Highs State Lows

Community

WunderPhotos

Upload Photos

1,955,538 photos uploaded!

WunderBlog® & News

Nearby

Air Quality

  Air Quality AQ Index Pollutant
Not available.

Snow Depth

Station Depth Elevation

Earthquake Activity

City Distance Mag. Time & Date
Minimum magnitude displayed is 2.5.

Coastal Water Temperatures

Place Temperature

Stations

Nearby Weather Stations

Station Location Temp. Windchill Dew Point Humidity Wind Precip. Elev Updated Type
                   

Watches & Warnings

There are currently no watches in effect.